createdAt,value
2019-02-08T00:00:26.769Z,35.13
2019-02-08T00:02:55.380Z,35.63
2019-02-08T00:05:23.897Z,34.37
2019-02-08T00:07:52.790Z,32.07
2019-02-08T00:10:21.779Z,35.97
2019-02-08T00:12:50.235Z,36.13
2019-02-08T00:15:23.223Z,32.57
2019-02-08T00:17:51.799Z,32.33
2019-02-08T00:20:21.645Z,31.83
2019-02-08T00:22:50.368Z,32.10
2019-02-08T00:25:20.117Z,35.10
2019-02-08T00:27:48.560Z,29.60
2019-02-08T00:30:28.562Z,38.07
2019-02-08T00:32:57.073Z,31.97
2019-02-08T00:35:25.744Z,29.57
2019-02-08T00:37:54.327Z,32.77
2019-02-08T00:40:25.091Z,28.73
2019-02-08T00:42:53.774Z,30.33
2019-02-08T00:45:23.462Z,31.77
2019-02-08T00:47:52.215Z,31.47
2019-02-08T00:50:26.944Z,34.37
2019-02-08T00:52:55.627Z,31.30
2019-02-08T00:55:24.263Z,30.03
2019-02-08T00:57:52.743Z,34.00
2019-02-08T01:00:22.215Z,32.13
2019-02-08T01:02:52.095Z,30.53
2019-02-08T01:05:22.387Z,31.17
2019-02-08T01:07:51.870Z,30.67
2019-02-08T01:10:29.128Z,32.03
2019-02-08T01:12:58.526Z,29.47
2019-02-08T01:15:28.420Z,30.97
2019-02-08T01:17:57.007Z,29.17
2019-02-08T01:20:26.306Z,27.87
2019-02-08T01:22:55.298Z,28.77
2019-02-08T01:25:25.887Z,30.00
2019-02-08T01:27:54.320Z,30.17
2019-02-08T01:30:33.384Z,31.20
2019-02-08T01:33:01.995Z,29.70
2019-02-08T01:35:30.623Z,29.63
2019-02-08T01:38:00.312Z,29.97
2019-02-08T01:40:31.343Z,25.10
2019-02-08T01:42:59.769Z,26.93
2019-02-08T01:45:30.372Z,27.13
2019-02-08T01:47:59.167Z,29.27
2019-02-08T01:50:29.471Z,25.37
2019-02-08T01:53:05.330Z,26.53
2019-02-08T01:55:33.787Z,28.70
2019-02-08T01:58:02.298Z,33.20
2019-02-08T02:00:36.307Z,33.20
2019-02-08T02:03:05.883Z,26.70
2019-02-08T02:05:34.349Z,30.80
2019-02-08T02:08:02.864Z,26.87
2019-02-08T02:10:34.040Z,32.87
2019-02-08T02:13:02.629Z,31.20
2019-02-08T02:15:31.299Z,29.80
2019-02-08T02:17:59.969Z,26.70
2019-02-08T02:20:33.828Z,30.67
2019-02-08T02:23:02.260Z,28.63
2019-02-08T02:25:30.771Z,30.68
2019-02-08T02:27:59.386Z,28.73
2019-02-08T02:30:35.775Z,34.37
2019-02-08T02:33:07.213Z,27.30
2019-02-08T02:35:35.742Z,27.63
2019-02-08T02:38:04.829Z,30.73
2019-02-08T02:40:33.332Z,26.60
2019-02-08T02:43:02.110Z,32.23
2019-02-08T02:45:37.737Z,26.97
2019-02-08T02:48:08.209Z,26.90
2019-02-08T02:50:36.661Z,28.00
2019-02-08T02:53:05.554Z,21.83
2019-02-08T02:55:34.156Z,23.63
2019-02-08T02:58:02.680Z,26.27
2019-02-08T03:00:42.964Z,21.57
2019-02-08T03:03:12.480Z,26.40
2019-02-08T03:05:41.001Z,19.67
2019-02-08T03:08:12.216Z,30.37
2019-02-08T03:10:40.658Z,26.00
2019-02-08T03:13:09.240Z,24.17
2019-02-08T03:15:37.691Z,22.87
2019-02-08T03:18:06.388Z,25.40
2019-02-08T03:20:36.371Z,18.50
2019-02-08T03:23:05.353Z,22.13
2019-02-08T03:25:33.795Z,24.03
2019-02-08T03:28:02.316Z,20.73
2019-02-08T03:30:41.852Z,29.13
2019-02-08T03:33:10.360Z,23.23
2019-02-08T03:35:38.898Z,24.60
2019-02-08T03:38:07.598Z,25.00
2019-02-08T03:40:36.024Z,26.83
2019-02-08T03:43:05.410Z,27.27
2019-02-08T03:45:37.928Z,28.57
2019-02-08T03:48:06.808Z,22.47
2019-02-08T03:50:35.300Z,22.10
2019-02-08T03:53:04.222Z,28.10
2019-02-08T03:55:32.647Z,26.13
2019-02-08T03:58:01.087Z,17.70
2019-02-08T04:00:34.894Z,29.67
2019-02-08T04:03:03.542Z,22.60
2019-02-08T04:05:32.103Z,26.27
2019-02-08T04:08:00.565Z,27.30
2019-02-08T04:10:29.066Z,28.60
2019-02-08T04:12:57.587Z,28.50
2019-02-08T04:15:26.407Z,26.63
2019-02-08T04:17:54.927Z,23.47
2019-02-08T04:20:26.935Z,25.07
2019-02-08T04:22:59.359Z,20.43
2019-02-08T04:25:27.792Z,27.63
2019-02-08T04:27:56.253Z,22.90
2019-02-08T04:30:29.244Z,24.00
2019-02-08T04:32:59.332Z,25.00
2019-02-08T04:35:27.847Z,25.67
2019-02-08T04:37:56.556Z,21.45
2019-02-08T04:40:26.323Z,26.37
2019-02-08T04:42:54.768Z,22.47
2019-02-08T04:45:23.442Z,28.13
2019-02-08T04:47:52.165Z,26.50
2019-02-08T04:50:25.983Z,26.90
2019-02-08T04:52:55.058Z,25.53
2019-02-08T04:55:23.502Z,24.67
2019-02-08T04:57:51.970Z,27.20
2019-02-08T05:00:28.508Z,26.87
2019-02-08T05:02:57.142Z,29.67
2019-02-08T05:05:25.568Z,30.33
2019-02-08T05:07:54.023Z,29.90
2019-02-08T05:10:28.228Z,25.23
2019-02-08T05:12:56.905Z,21.43
2019-02-08T05:15:25.387Z,25.13
2019-02-08T05:17:53.910Z,23.07
2019-02-08T05:20:24.850Z,26.73
2019-02-08T05:22:53.966Z,23.43
2019-02-08T05:25:22.486Z,23.93
2019-02-08T05:27:52.462Z,26.07
2019-02-08T05:30:32.760Z,41.73
2019-02-08T05:33:01.289Z,26.47
2019-02-08T05:35:29.798Z,25.23
2019-02-08T05:37:58.403Z,32.83
2019-02-08T05:40:27.204Z,30.43
2019-02-08T05:42:56.096Z,22.70
2019-02-08T05:45:26.452Z,21.93
2019-02-08T05:47:54.904Z,26.70
2019-02-08T05:50:28.348Z,28.93
2019-02-08T05:52:57.067Z,27.55
2019-02-08T05:55:30.799Z,24.00
2019-02-08T05:57:59.880Z,26.03
2019-02-08T06:00:41.688Z,24.63
2019-02-08T06:03:10.207Z,21.80
2019-02-08T06:05:39.689Z,29.33
2019-02-08T06:08:08.685Z,25.80
2019-02-08T06:10:37.203Z,22.93
2019-02-08T06:13:07.191Z,20.10
2019-02-08T06:15:35.643Z,21.30
2019-02-08T06:18:04.763Z,23.43
2019-02-08T06:20:33.212Z,25.10
2019-02-08T06:23:01.657Z,22.53
2019-02-08T06:25:30.101Z,22.20
2019-02-08T06:27:58.595Z,19.63
2019-02-08T06:30:30.697Z,20.77
2019-02-08T06:32:59.212Z,23.50
2019-02-08T06:35:28.800Z,24.23
2019-02-08T06:37:57.228Z,18.70
2019-02-08T06:40:28.594Z,27.97
2019-02-08T06:42:57.139Z,20.80
2019-02-08T06:45:27.392Z,18.17
2019-02-08T06:47:55.878Z,18.87
2019-02-08T06:50:25.939Z,21.17
2019-02-08T06:52:54.736Z,21.03
2019-02-08T06:55:24.006Z,28.00
2019-02-08T06:57:58.051Z,21.10
2019-02-08T07:00:28.356Z,20.37
2019-02-08T07:03:04.252Z,17.10
2019-02-08T07:05:40.094Z,19.10
2019-02-08T07:08:16.328Z,18.50
2019-02-08T07:10:52.515Z,22.17
2019-02-08T07:13:28.478Z,20.00
2019-02-08T07:16:01.929Z,18.13
2019-02-08T07:18:34.711Z,15.60
2019-02-08T07:21:04.799Z,20.93
2019-02-08T07:23:46.670Z,13.40
2019-02-08T07:26:28.783Z,15.60
2019-02-08T07:29:07.864Z,16.50
2019-02-08T07:31:38.023Z,16.20
2019-02-08T07:34:08.304Z,13.53
2019-02-08T07:36:55.116Z,13.27
2019-02-08T07:39:30.990Z,14.10
2019-02-08T07:42:04.322Z,11.20
2019-02-08T07:44:40.038Z,11.10
2019-02-08T07:47:10.358Z,12.77
2019-02-08T07:49:42.540Z,9.80
2019-02-08T07:52:15.483Z,13.50
2019-02-08T07:54:48.374Z,12.63
2019-02-08T07:57:27.577Z,13.10
2019-02-08T07:59:57.667Z,11.63
2019-02-08T08:02:33.463Z,14.83
2019-02-08T08:05:04.017Z,10.87
2019-02-08T08:07:34.153Z,10.40
2019-02-08T08:10:13.533Z,16.80
2019-02-08T08:12:44.049Z,9.33
2019-02-08T08:15:20.013Z,11.27
2019-02-08T08:17:52.750Z,10.80
2019-02-08T08:20:40.592Z,10.80
2019-02-08T08:23:23.203Z,15.97
2019-02-08T08:25:56.356Z,10.17
2019-02-08T08:28:26.439Z,11.23
2019-02-08T08:31:02.191Z,12.65
2019-02-08T08:33:54.394Z,12.77
2019-02-08T08:36:51.670Z,9.73
2019-02-08T08:39:29.128Z,7.43
2019-02-08T08:42:09.330Z,9.30
2019-02-08T08:45:04.331Z,9.63
2019-02-08T08:48:04.792Z,9.37
2019-02-08T08:50:51.163Z,12.43
2019-02-08T08:53:31.251Z,11.90
2019-02-08T08:56:02.772Z,9.80
2019-02-08T08:58:55.535Z,17.33
2019-02-08T09:01:35.367Z,10.10
2019-02-08T09:04:18.933Z,11.70
2019-02-08T09:06:53.413Z,9.80
2019-02-08T09:09:43.151Z,9.53
2019-02-08T09:12:17.325Z,12.17
2019-02-08T09:15:07.031Z,8.23
2019-02-08T09:18:13.363Z,8.57
2019-02-08T09:21:07.683Z,8.67
2019-02-08T09:23:55.656Z,10.30
2019-02-08T09:26:30.185Z,7.43
2019-02-08T09:29:20.329Z,7.97
2019-02-08T09:32:22.940Z,7.27
2019-02-08T09:35:28.699Z,9.03
2019-02-08T09:38:49.444Z,6.70
2019-02-08T09:41:26.747Z,8.63
2019-02-08T09:44:14.807Z,9.03
2019-02-08T09:46:55.680Z,14.03
2019-02-08T09:49:52.912Z,9.70
2019-02-08T09:52:32.983Z,16.47
2019-02-08T09:55:25.129Z,12.63
2019-02-08T09:58:11.682Z,10.97
2019-02-08T10:01:06.039Z,18.17
2019-02-08T10:03:52.365Z,16.37
2019-02-08T10:06:23.988Z,9.97
2019-02-08T10:09:16.520Z,6.77
2019-02-08T10:12:09.124Z,9.77
2019-02-08T10:14:57.156Z,11.60
2019-02-08T10:18:02.051Z,8.17
2019-02-08T10:20:33.556Z,11.03
2019-02-08T10:23:21.608Z,10.60
2019-02-08T10:26:18.663Z,6.83
2019-02-08T10:29:23.443Z,8.47
2019-02-08T10:32:26.896Z,5.40
2019-02-08T10:35:30.523Z,6.93
2019-02-08T10:38:07.779Z,6.77
2019-02-08T10:41:00.664Z,9.03
2019-02-08T10:43:54.832Z,10.07
2019-02-08T10:46:52.014Z,5.47
2019-02-08T10:49:41.441Z,6.23
2019-02-08T10:52:40.047Z,10.33
2019-02-08T10:55:45.262Z,7.13
2019-02-08T10:58:31.990Z,11.20
2019-02-08T11:01:20.291Z,7.97
2019-02-08T11:04:13.189Z,7.93
2019-02-08T11:07:03.263Z,5.57
2019-02-08T11:09:46.342Z,6.27
2019-02-08T11:12:38.988Z,9.77
2019-02-08T11:15:25.475Z,4.57
2019-02-08T11:18:36.248Z,8.33
2019-02-08T11:21:05.108Z,5.70
2019-02-08T11:23:33.628Z,10.00
2019-02-08T11:26:02.556Z,8.13
2019-02-08T11:28:30.983Z,7.10
2019-02-08T11:30:59.442Z,7.83
2019-02-08T11:33:27.868Z,8.77
2019-02-08T11:35:56.491Z,7.90
2019-02-08T11:38:24.931Z,8.60
2019-02-08T11:40:53.387Z,12.37
2019-02-08T11:43:21.825Z,7.17
2019-02-08T11:45:50.288Z,7.07
2019-02-08T11:48:18.812Z,11.93
2019-02-08T11:50:47.276Z,13.77
2019-02-08T11:53:15.726Z,8.00
2019-02-08T11:55:44.172Z,10.47
2019-02-08T11:58:12.768Z,9.17
2019-02-08T12:00:45.659Z,9.30
2019-02-08T12:03:14.177Z,5.73
2019-02-08T12:05:42.616Z,6.93
2019-02-08T12:08:11.345Z,6.40
2019-02-08T12:10:39.864Z,7.53
2019-02-08T12:13:08.472Z,8.57
2019-02-08T12:15:37.084Z,7.30
2019-02-08T12:18:05.543Z,7.83
2019-02-08T12:20:33.987Z,3.10
2019-02-08T12:23:02.427Z,8.53
2019-02-08T12:25:30.875Z,7.10
2019-02-08T12:27:59.323Z,6.63
2019-02-08T12:30:31.164Z,4.43
2019-02-08T12:32:59.699Z,8.03
2019-02-08T12:35:28.245Z,6.77
2019-02-08T12:37:56.703Z,9.65
2019-02-08T12:40:25.146Z,8.43
2019-02-08T12:42:53.599Z,5.83
2019-02-08T12:45:22.284Z,6.83
2019-02-08T12:47:50.744Z,11.43
2019-02-08T12:50:40.046Z,6.83
2019-02-08T12:53:08.500Z,4.80
2019-02-08T12:55:36.938Z,6.43
2019-02-08T12:58:05.399Z,8.00
2019-02-08T13:00:34.115Z,7.17
2019-02-08T13:03:02.543Z,8.20
2019-02-08T13:05:31.064Z,9.00
2019-02-08T13:07:59.510Z,6.57
2019-02-08T13:10:29.790Z,5.87
2019-02-08T13:12:58.244Z,9.87
2019-02-08T13:15:26.815Z,8.10
2019-02-08T13:17:55.252Z,5.77
2019-02-08T13:20:24.435Z,7.77
2019-02-08T13:22:53.116Z,9.50
2019-02-08T13:25:21.624Z,6.80
2019-02-08T13:27:50.256Z,9.17
2019-02-08T13:30:23.658Z,9.10
2019-02-08T13:32:52.144Z,6.23
2019-02-08T13:35:20.677Z,7.67
2019-02-08T13:37:49.251Z,5.63
2019-02-08T13:40:22.775Z,7.77
2019-02-08T13:42:51.219Z,6.53
2019-02-08T13:45:19.940Z,6.03
2019-02-08T13:47:48.624Z,8.50
2019-02-08T13:50:33.960Z,11.00
2019-02-08T13:53:02.397Z,12.33
2019-02-08T13:55:30.904Z,11.40
2019-02-08T13:57:59.332Z,10.07
2019-02-08T14:00:36.108Z,13.70
2019-02-08T14:03:05.699Z,12.40
2019-02-08T14:05:34.387Z,10.90
2019-02-08T14:08:02.813Z,9.20
2019-02-08T14:10:31.268Z,10.67
2019-02-08T14:12:59.689Z,12.70
2019-02-08T14:15:28.396Z,12.30
2019-02-08T14:17:56.827Z,10.33
2019-02-08T14:20:27.588Z,12.77
2019-02-08T14:22:56.270Z,14.67
2019-02-08T14:25:24.890Z,11.73
2019-02-08T14:27:53.546Z,12.93
2019-02-08T14:30:25.076Z,12.87
2019-02-08T14:32:53.583Z,13.97
2019-02-08T14:35:22.179Z,13.43
2019-02-08T14:37:50.686Z,12.97
2019-02-08T14:40:22.204Z,16.63
2019-02-08T14:42:50.639Z,21.87
2019-02-08T14:45:19.091Z,14.73
2019-02-08T14:47:47.600Z,13.90
2019-02-08T14:50:23.463Z,19.27
2019-02-08T14:52:52.040Z,18.93
2019-02-08T14:55:20.623Z,18.73
2019-02-08T14:57:49.999Z,24.27
2019-02-08T15:00:24.507Z,18.57
2019-02-08T15:02:52.947Z,23.07
2019-02-08T15:05:22.844Z,23.57
2019-02-08T15:07:53.690Z,22.53
2019-02-08T15:10:42.937Z,17.87
2019-02-08T15:13:11.440Z,20.73
2019-02-08T15:15:39.973Z,20.87
2019-02-08T15:18:08.395Z,18.57
2019-02-08T15:20:37.891Z,20.07
2019-02-08T15:23:06.596Z,22.33
2019-02-08T15:25:35.050Z,20.83
2019-02-08T15:28:03.559Z,19.17
2019-02-08T15:30:36.539Z,22.50
2019-02-08T15:33:05.719Z,20.73
2019-02-08T15:35:35.205Z,21.90
2019-02-08T15:38:04.346Z,22.37
2019-02-08T15:40:38.472Z,24.50
2019-02-08T15:43:07.754Z,22.47
2019-02-08T15:45:36.447Z,26.33
2019-02-08T15:48:05.303Z,21.40
2019-02-08T15:50:33.833Z,25.00
2019-02-08T15:53:02.353Z,24.60
2019-02-08T15:55:36.364Z,29.33
2019-02-08T15:58:04.924Z,20.40
2019-02-08T16:00:33.623Z,22.67
2019-02-08T16:03:02.041Z,24.63
2019-02-08T16:05:31.555Z,24.20
2019-02-08T16:08:00.041Z,23.60
2019-02-08T16:10:28.731Z,23.20
2019-02-08T16:12:57.257Z,20.70
2019-02-08T16:15:27.917Z,27.80
2019-02-08T16:17:56.551Z,23.07
2019-02-08T16:20:27.427Z,26.23
2019-02-08T16:22:56.825Z,21.80
2019-02-08T16:25:28.261Z,21.87
2019-02-08T16:27:56.764Z,25.03
2019-02-08T16:30:29.884Z,25.13
2019-02-08T16:32:58.408Z,21.27
2019-02-08T16:35:27.024Z,23.23
2019-02-08T16:37:55.536Z,21.77
2019-02-08T16:40:26.588Z,29.40
2019-02-08T16:42:55.039Z,29.47
2019-02-08T16:45:26.233Z,27.93
2019-02-08T16:47:55.749Z,25.33
2019-02-08T16:50:34.721Z,23.93
2019-02-08T16:53:03.812Z,25.53
2019-02-08T16:55:32.232Z,23.63
2019-02-08T16:58:01.505Z,23.67
2019-02-08T17:00:35.177Z,23.33
2019-02-08T17:03:06.522Z,23.93
2019-02-08T17:05:35.182Z,26.97
2019-02-08T17:08:04.269Z,26.87
2019-02-08T17:10:33.014Z,25.77
2019-02-08T17:13:01.796Z,23.30
2019-02-08T17:15:32.529Z,27.13
2019-02-08T17:18:01.609Z,23.43
2019-02-08T17:20:39.243Z,26.87
2019-02-08T17:23:08.281Z,29.87
2019-02-08T17:25:36.819Z,25.93
2019-02-08T17:28:06.385Z,25.20
2019-02-08T17:30:35.081Z,24.47
2019-02-08T17:33:03.918Z,28.67
2019-02-08T17:35:32.640Z,23.03
2019-02-08T17:38:01.197Z,23.40
2019-02-08T17:40:38.439Z,23.57
2019-02-08T17:43:07.008Z,22.83
2019-02-08T17:45:35.456Z,28.73
2019-02-08T17:48:06.722Z,25.90
2019-02-08T17:50:35.163Z,28.40
2019-02-08T17:53:03.883Z,25.13
2019-02-08T17:55:32.333Z,31.83
2019-02-08T17:58:03.553Z,23.97
2019-02-08T18:00:41.166Z,26.57
2019-02-08T18:03:09.611Z,26.37
2019-02-08T18:05:38.062Z,25.37
2019-02-08T18:08:06.952Z,27.43
2019-02-08T18:10:35.502Z,27.43
2019-02-08T18:13:04.979Z,25.40
2019-02-08T18:15:33.404Z,22.97
2019-02-08T18:18:02.803Z,25.23
2019-02-08T18:20:33.971Z,24.30
2019-02-08T18:23:02.424Z,24.93
2019-02-08T18:25:30.850Z,25.07
2019-02-08T18:27:59.308Z,28.30
2019-02-08T18:30:29.272Z,30.30
2019-02-08T18:32:57.717Z,25.20
2019-02-08T18:35:26.144Z,28.43
2019-02-08T18:37:54.599Z,23.63
2019-02-08T18:40:24.573Z,32.80
2019-02-08T18:42:53.281Z,26.07
2019-02-08T18:45:32.045Z,22.00
2019-02-08T18:48:00.480Z,23.00
2019-02-08T18:50:37.372Z,30.80
2019-02-08T18:53:06.567Z,30.27
2019-02-08T18:55:34.996Z,30.53
2019-02-08T18:58:04.194Z,24.43
2019-02-08T19:00:39.729Z,27.03
2019-02-08T19:03:05.587Z,26.20
2019-02-08T19:05:34.111Z,25.57
2019-02-08T19:08:02.580Z,27.73
2019-02-08T19:10:31.082Z,24.67
2019-02-08T19:12:59.508Z,35.30
2019-02-08T19:15:27.983Z,29.43
2019-02-08T19:17:56.495Z,25.87
2019-02-08T19:20:26.315Z,28.23
2019-02-08T19:22:54.741Z,26.37
2019-02-08T19:25:31.744Z,25.80
2019-02-08T19:28:00.196Z,22.33
2019-02-08T19:30:39.377Z,23.20
2019-02-08T19:33:08.051Z,27.87
2019-02-08T19:35:36.639Z,26.17
2019-02-08T19:38:06.305Z,25.53
2019-02-08T19:40:36.909Z,21.20
2019-02-08T19:43:05.871Z,20.33
2019-02-08T19:45:34.598Z,21.03
2019-02-08T19:48:03.275Z,24.50
2019-02-08T19:50:34.351Z,23.07
2019-02-08T19:53:02.807Z,22.27
2019-02-08T19:55:31.320Z,15.10
2019-02-08T19:57:59.744Z,23.93
2019-02-08T20:00:30.435Z,20.83
2019-02-08T20:02:59.101Z,20.93
2019-02-08T20:05:27.649Z,21.87
2019-02-08T20:07:56.500Z,23.33
2019-02-08T20:10:35.683Z,17.03
2019-02-08T20:13:04.260Z,18.20
2019-02-08T20:15:32.879Z,25.47
2019-02-08T20:18:01.391Z,18.40
2019-02-08T20:20:29.984Z,17.47
2019-02-08T20:22:58.546Z,17.20
2019-02-08T20:25:29.502Z,18.63
2019-02-08T20:27:58.029Z,19.50
2019-02-08T20:30:28.483Z,17.70
2019-02-08T20:32:57.122Z,17.10
2019-02-08T20:35:27.076Z,13.80
2019-02-08T20:37:56.144Z,17.40
2019-02-08T20:40:35.219Z,14.30
2019-02-08T20:43:03.743Z,14.37
2019-02-08T20:45:33.517Z,14.17
2019-02-08T20:48:04.575Z,15.40
2019-02-08T20:50:33.120Z,16.63
2019-02-08T20:53:02.397Z,19.00
2019-02-08T20:55:31.187Z,15.40
2019-02-08T20:57:59.613Z,17.50
2019-02-08T21:00:33.047Z,15.28
2019-02-08T21:03:01.822Z,13.57
2019-02-08T21:05:31.541Z,14.47
2019-02-08T21:08:00.638Z,12.17
2019-02-08T21:10:29.970Z,18.47
2019-02-08T21:12:58.471Z,20.93
2019-02-08T21:15:27.196Z,14.30
2019-02-08T21:17:55.687Z,15.10
2019-02-08T21:20:24.189Z,15.73
2019-02-08T21:22:52.644Z,17.00
2019-02-08T21:25:26.252Z,12.93
2019-02-08T21:27:54.760Z,14.43
2019-02-08T21:30:23.270Z,9.83
2019-02-08T21:32:53.515Z,12.00
2019-02-08T21:35:22.065Z,15.10
2019-02-08T21:37:50.564Z,11.17
2019-02-08T21:40:24.407Z,12.57
2019-02-08T21:42:53.022Z,21.60
2019-02-08T21:45:33.090Z,12.07
2019-02-08T21:48:01.605Z,10.83
2019-02-08T21:50:30.663Z,15.60
2019-02-08T21:52:59.470Z,12.40
2019-02-08T21:55:29.886Z,14.20
2019-02-08T21:57:58.800Z,15.73
2019-02-08T22:00:30.019Z,11.12
2019-02-08T22:02:59.828Z,13.23
2019-02-08T22:05:31.248Z,12.93
2019-02-08T22:07:59.764Z,14.67
2019-02-08T22:10:28.524Z,15.30
2019-02-08T22:12:57.036Z,11.63
2019-02-08T22:15:36.920Z,14.13
2019-02-08T22:18:06.320Z,17.30
2019-02-08T22:20:34.955Z,14.57
2019-02-08T22:23:03.463Z,13.03
2019-02-08T22:25:32.948Z,9.67
2019-02-08T22:28:01.387Z,10.87
2019-02-08T22:30:29.904Z,14.30
2019-02-08T22:33:00.933Z,19.37
2019-02-08T22:35:29.462Z,12.53
2019-02-08T22:37:57.900Z,15.30
2019-02-08T22:40:26.892Z,10.93
2019-02-08T22:42:55.325Z,15.23
2019-02-08T22:45:29.483Z,14.07
2019-02-08T22:47:58.063Z,16.97
2019-02-08T22:50:26.686Z,12.07
2019-02-08T22:52:55.199Z,13.53
2019-02-08T22:55:26.794Z,10.90
2019-02-08T22:57:55.473Z,16.70
2019-02-08T23:00:36.399Z,12.17
2019-02-08T23:03:07.144Z,16.40
2019-02-08T23:05:35.597Z,10.23
2019-02-08T23:08:04.886Z,10.43
2019-02-08T23:10:33.391Z,12.27
2019-02-08T23:13:01.836Z,11.17
2019-02-08T23:15:30.428Z,10.07
2019-02-08T23:17:58.869Z,12.33
2019-02-08T23:20:27.311Z,13.07
2019-02-08T23:22:55.749Z,16.63
2019-02-08T23:25:24.254Z,13.67
2019-02-08T23:27:52.810Z,11.87
2019-02-08T23:30:23.447Z,11.13
2019-02-08T23:32:51.934Z,11.57
2019-02-08T23:35:20.484Z,7.50
2019-02-08T23:37:48.953Z,9.80
2019-02-08T23:40:18.581Z,11.20
2019-02-08T23:42:47.459Z,12.53
2019-02-08T23:45:20.612Z,11.70
2019-02-08T23:47:49.218Z,10.57
2019-02-08T23:50:21.252Z,10.60
2019-02-08T23:52:49.687Z,7.73
2019-02-08T23:55:28.606Z,13.73
2019-02-08T23:57:57.043Z,10.07
